| DS18B20 | SHTC3 | ||||||
|---|---|---|---|---|---|---|---|
| ID | Date d/m/Y & Time | data1 สูง | data2 ต่ำ | data3 นอก | temp pcb | hum pcb | Time |
| 8292 | 03/04/2026 02:42:30 | 28.1  | 28.2  | 26.2  | 28.1  | 72.3  | 02:42 |
| 8291 | 03/04/2026 02:37:49 | 28.1  | 28.2  | 26.4  | 27.9  | 72.1  | 02:37 |
| 8290 | 03/04/2026 02:33:07 | 28.1  | 28.2  | 26.3  | 28.1  | 72.2  | 02:33 |
| 8289 | 03/04/2026 02:28:26 | 28.2  | 28.2  | 26.4  | 28.1  | 72.3  | 02:28 |
| 8288 | 03/04/2026 02:23:44 | 28.2  | 28.2  | 26.6  | 27.9  | 72.1  | 02:23 |
| 8287 | 03/04/2026 02:19:02 | 28.2  | 28.2  | 27.1  | 28.0  | 72.2  | 02:19 |
| 8286 | 03/04/2026 02:14:20 | 28.2  | 28.2  | 27.2  | 28.1  | 72.2  | 02:14 |
| 8285 | 03/04/2026 02:09:38 | 28.2  | 28.3  | 27.1  | 28.1  | 72.3  | 02:09 |
| 8284 | 03/04/2026 02:04:56 | 28.2  | 28.3  | 27.0  | 28.2  | 72.2  | 02:04 |
| 8283 | 03/04/2026 02:00:14 | 28.3  | 28.3  | 27.1  | 28.1  | 72.2  | 02:00 |
| 8282 | 03/04/2026 01:55:32 | 28.3  | 28.3  | 27.1  | 28.1  | 72.1  | 01:55 |
| 8281 | 03/04/2026 01:50:50 | 28.3  | 28.4  | 27.1  | 28.1  | 72.2  | 01:50 |
| 8280 | 03/04/2026 01:46:10 | 28.3  | 28.4  | 27.1  | 28.1  | 72.2  | 01:46 |
| 8279 | 03/04/2026 01:41:27 | 28.4  | 28.4  | 27.1  | 28.3  | 72.1  | 01:41 |
| 8278 | 03/04/2026 01:36:45 | 28.4  | 28.4  | 27.1  | 28.2  | 72.2  | 01:36 |
| 8277 | 03/04/2026 01:32:03 | 28.4  | 28.4  | 27.3  | 28.2  | 72.2  | 01:32 |
| 8276 | 03/04/2026 01:27:22 | 28.4  | 28.4  | 27.2  | 28.3  | 72.1  | 01:27 |
| 8275 | 03/04/2026 01:22:40 | 28.4  | 28.5  | 27.3  | 28.3  | 72.2  | 01:22 |
| 8274 | 03/04/2026 01:17:59 | 28.4  | 28.5  | 27.4  | 28.2  | 72.1  | 01:17 |
| 8273 | 03/04/2026 01:13:17 | 28.4  | 28.5  | 27.4  | 28.5  | 72.2  | 01:13 |
| 8272 | 03/04/2026 01:08:34 | 28.5  | 28.5  | 27.4  | 28.3  | 72.1  | 01:08 |
| 8271 | 03/04/2026 01:03:51 | 28.5  | 28.6  | 27.5  | 28.5  | 72.2  | 01:03 |
| 8270 | 03/04/2026 00:59:10 | 28.5  | 28.6  | 27.5  | 28.2  | 72.0  | 00:59 |
| 8269 | 03/04/2026 00:54:27 | 28.6  | 28.6  | 27.5  | 28.4  | 72.0  | 00:54 |